createdAt,value
2022-10-22T00:01:54.994Z,98.35
2022-10-22T00:06:56.959Z,98.28
2022-10-22T00:11:58.690Z,98.30
2022-10-22T00:17:04.214Z,98.45
2022-10-22T00:22:09.891Z,98.49
2022-10-22T00:27:12.692Z,98.44
2022-10-22T00:32:15.154Z,98.61
2022-10-22T00:37:16.852Z,98.57
2022-10-22T00:42:21.903Z,98.50
2022-10-22T00:47:25.210Z,98.53
2022-10-22T00:52:27.269Z,98.64
2022-10-22T00:57:29.255Z,98.97
2022-10-22T01:02:30.827Z,98.44
2022-10-22T01:13:35.403Z,98.64
2022-10-22T01:19:01.053Z,98.74
2022-10-22T01:24:11.374Z,98.73
2022-10-22T01:29:25.758Z,98.89
2022-10-22T01:34:29.502Z,98.60
2022-10-22T01:39:31.690Z,98.92
2022-10-22T01:50:04.978Z,98.70
2022-10-22T01:55:26.877Z,98.60
2022-10-22T02:00:29.155Z,98.87
2022-10-22T02:05:38.504Z,98.85
2022-10-22T02:10:44.630Z,98.91
2022-10-22T02:15:50.307Z,98.59
2022-10-22T02:20:52.971Z,98.85
2022-10-22T02:26:09.317Z,98.74
2022-10-22T02:31:17.357Z,98.86
2022-10-22T02:36:19.221Z,98.90
2022-10-22T02:41:21.288Z,99.31
2022-10-22T02:46:25.661Z,99.14
2022-10-22T02:51:27.409Z,99.20
2022-10-22T02:56:28.841Z,99.42
2022-10-22T03:01:30.566Z,99.46
2022-10-22T03:06:32.863Z,99.65
2022-10-22T03:11:34.716Z,99.61
2022-10-22T03:16:36.437Z,99.57
2022-10-22T03:21:50.735Z,99.79
2022-10-22T03:26:52.927Z,99.66
2022-10-22T03:31:55.836Z,99.74
2022-10-22T03:37:02.098Z,99.74
2022-10-22T03:42:07.743Z,100.00
2022-10-22T03:47:16.138Z,100.00
2022-10-22T03:52:18.178Z,100.00
2022-10-22T03:57:19.625Z,100.00
2022-10-22T04:02:22.680Z,100.00
2022-10-22T04:07:24.581Z,100.00
2022-10-22T04:12:26.234Z,100.00
2022-10-22T04:17:34.744Z,100.00
2022-10-22T04:22:37.153Z,100.00
2022-10-22T04:27:38.778Z,100.00
2022-10-22T04:32:44.431Z,100.00
2022-10-22T04:37:48.102Z,100.00
2022-10-22T04:42:49.881Z,100.00
2022-10-22T04:47:51.366Z,100.00
2022-10-22T04:52:56.834Z,100.00
2022-10-22T04:57:58.914Z,100.00
2022-10-22T05:03:00.577Z,100.00
2022-10-22T05:08:02.936Z,100.00
2022-10-22T05:13:08.421Z,100.00
2022-10-22T05:18:10.100Z,100.00
2022-10-22T05:23:11.775Z,100.00
2022-10-22T05:28:13.736Z,100.00
2022-10-22T05:33:15.152Z,100.00
2022-10-22T05:38:17.614Z,100.00
2022-10-22T05:43:19.082Z,100.00
2022-10-22T05:48:20.546Z,100.00
2022-10-22T05:53:22.448Z,100.00
2022-10-22T05:58:24.165Z,100.00
2022-10-22T06:03:26.086Z,100.00
2022-10-22T06:08:28.131Z,100.00
2022-10-22T06:13:29.581Z,100.00
2022-10-22T06:18:31.074Z,100.00
2022-10-22T06:23:33.115Z,100.00
2022-10-22T06:28:34.809Z,100.00
2022-10-22T06:33:42.081Z,100.00
2022-10-22T06:38:44.097Z,100.00
2022-10-22T06:43:49.650Z,100.00
2022-10-22T06:49:00.997Z,100.00
2022-10-22T06:54:02.523Z,100.00
2022-10-22T06:59:04.298Z,100.00
2022-10-22T07:04:06.781Z,100.00
2022-10-22T07:09:08.541Z,100.00
2022-10-22T07:14:11.292Z,100.00
2022-10-22T07:19:13.403Z,100.00
2022-10-22T07:24:14.892Z,100.00
2022-10-22T07:29:16.890Z,100.00
2022-10-22T07:39:25.891Z,100.00
2022-10-22T07:44:27.556Z,100.00
2022-10-22T07:49:29.065Z,99.70
2022-10-22T07:54:30.545Z,92.62
2022-10-22T07:59:32.060Z,81.02
2022-10-22T08:04:33.862Z,77.97
2022-10-22T08:09:36.119Z,81.21
2022-10-22T08:14:40.556Z,84.48
2022-10-22T08:19:42.397Z,87.08
2022-10-22T08:24:44.079Z,88.54
2022-10-22T08:29:49.278Z,89.65
2022-10-22T08:34:50.952Z,89.32
2022-10-22T08:39:52.498Z,88.88
2022-10-22T08:45:06.265Z,88.89
2022-10-22T08:50:15.656Z,89.60
2022-10-22T08:55:17.525Z,89.11
2022-10-22T09:00:34.201Z,88.59
2022-10-22T09:05:41.793Z,88.29
2022-10-22T09:10:49.017Z,86.94
2022-10-22T09:15:54.962Z,86.48
2022-10-22T09:21:17.040Z,86.64
2022-10-22T09:26:18.510Z,86.56
2022-10-22T09:31:20.012Z,86.23
2022-10-22T09:36:22.865Z,85.87
2022-10-22T09:41:32.328Z,85.34
2022-10-22T09:46:43.940Z,84.97
2022-10-22T09:51:56.153Z,84.25
2022-10-22T09:57:22.032Z,84.33
2022-10-22T10:02:37.928Z,83.70
2022-10-22T10:07:40.782Z,84.08
2022-10-22T10:12:48.209Z,84.05
2022-10-22T10:18:04.054Z,83.00
2022-10-22T10:23:27.933Z,83.28
2022-10-22T10:29:00.484Z,83.44
2022-10-22T10:34:31.625Z,83.09
2022-10-22T10:40:10.457Z,82.15
2022-10-22T10:45:24.214Z,80.63
2022-10-22T10:50:47.722Z,80.31
2022-10-22T10:56:07.527Z,80.58
2022-10-22T11:01:23.899Z,79.73
2022-10-22T11:06:27.592Z,79.09
2022-10-22T11:11:38.654Z,78.53
2022-10-22T11:16:46.650Z,78.64
2022-10-22T11:22:10.530Z,78.94
2022-10-22T11:27:31.354Z,79.95
2022-10-22T11:32:33.321Z,80.46
2022-10-22T11:37:39.159Z,80.08
2022-10-22T11:42:46.580Z,80.61
2022-10-22T11:47:57.609Z,80.86
2022-10-22T11:53:03.818Z,80.16
2022-10-22T11:58:28.364Z,78.98
2022-10-22T12:03:52.621Z,79.62
2022-10-22T12:08:54.931Z,79.79
2022-10-22T12:14:20.101Z,80.32
2022-10-22T12:19:31.749Z,80.69
2022-10-22T12:24:39.046Z,80.81
2022-10-22T12:29:42.554Z,81.65
2022-10-22T12:34:56.179Z,83.01
2022-10-22T12:40:37.229Z,84.70
2022-10-22T12:45:40.180Z,86.04
2022-10-22T12:50:47.887Z,85.66
2022-10-22T12:55:52.081Z,85.71
2022-10-22T13:00:59.538Z,85.50
2022-10-22T13:06:20.261Z,85.40
2022-10-22T13:11:22.062Z,85.20
2022-10-22T13:16:26.099Z,84.79
2022-10-22T13:21:39.839Z,85.08
2022-10-22T13:26:41.876Z,85.16
2022-10-22T13:31:50.180Z,85.08
2022-10-22T13:36:54.123Z,85.39
2022-10-22T13:41:55.636Z,85.71
2022-10-22T13:46:57.098Z,86.10
2022-10-22T13:52:00.539Z,86.34
2022-10-22T13:57:02.259Z,86.24
2022-10-22T14:02:07.250Z,86.77
2022-10-22T14:07:14.279Z,86.72
2022-10-22T14:12:17.437Z,87.21
2022-10-22T14:17:20.020Z,87.37
2022-10-22T14:22:23.679Z,87.47
2022-10-22T14:27:25.239Z,87.58
2022-10-22T14:32:28.319Z,87.75
2022-10-22T14:37:29.945Z,87.98
2022-10-22T14:42:32.876Z,87.80
2022-10-22T14:47:36.970Z,87.99
2022-10-22T14:52:38.560Z,88.50
2022-10-22T14:57:40.990Z,88.66
2022-10-22T15:02:43.706Z,88.96
2022-10-22T15:07:48.431Z,88.79
2022-10-22T15:12:52.885Z,89.13
2022-10-22T15:17:54.417Z,88.92
2022-10-22T15:22:56.730Z,89.00
2022-10-22T15:28:00.838Z,88.98
2022-10-22T15:33:06.980Z,88.82
2022-10-22T15:38:09.240Z,89.18
2022-10-22T15:43:11.417Z,89.32
2022-10-22T15:48:19.624Z,89.21
2022-10-22T15:53:21.315Z,89.59
2022-10-22T15:58:22.849Z,89.68
2022-10-22T16:03:24.477Z,89.52
2022-10-22T16:08:30.262Z,89.94
2022-10-22T16:13:31.835Z,90.07
2022-10-22T16:18:33.838Z,90.40
2022-10-22T16:23:35.491Z,90.84
2022-10-22T16:28:37.027Z,91.12
2022-10-22T16:33:46.458Z,91.41
2022-10-22T16:38:51.362Z,91.59
2022-10-22T16:43:55.198Z,91.87
2022-10-22T16:48:56.852Z,92.18
2022-10-22T16:53:58.295Z,92.59
2022-10-22T16:58:59.773Z,92.55
2022-10-22T17:04:01.665Z,92.81
2022-10-22T17:09:03.545Z,93.08
2022-10-22T17:14:05.613Z,93.32
2022-10-22T17:19:07.253Z,93.40
2022-10-22T17:24:09.851Z,93.71
2022-10-22T17:29:13.094Z,93.66
2022-10-22T17:34:17.660Z,93.97
2022-10-22T17:39:23.602Z,94.05
2022-10-22T17:44:25.636Z,94.10
2022-10-22T17:49:30.349Z,94.09
2022-10-22T17:54:33.001Z,94.38
2022-10-22T17:59:34.541Z,94.44
2022-10-22T18:04:36.040Z,94.53
2022-10-22T18:09:39.437Z,94.39
2022-10-22T18:14:42.006Z,94.59
2022-10-22T18:19:47.932Z,94.69
2022-10-22T18:24:50.818Z,94.79
2022-10-22T18:29:52.266Z,94.79
2022-10-22T18:34:54.104Z,94.82
2022-10-22T18:39:57.410Z,94.97
2022-10-22T18:45:01.063Z,94.92
2022-10-22T18:50:02.748Z,95.07
2022-10-22T18:55:04.987Z,95.25
2022-10-22T19:00:07.407Z,95.35
2022-10-22T19:05:09.476Z,95.29
2022-10-22T19:10:12.925Z,95.45
2022-10-22T19:15:14.524Z,95.55
2022-10-22T19:20:17.428Z,95.92
2022-10-22T19:25:20.000Z,95.96
2022-10-22T19:30:21.469Z,96.00
2022-10-22T19:35:23.158Z,96.15
2022-10-22T19:40:27.423Z,96.25
2022-10-22T19:45:31.588Z,96.50
2022-10-22T19:50:36.281Z,96.64
2022-10-22T19:55:46.435Z,96.46
2022-10-22T20:00:48.238Z,96.64
2022-10-22T20:05:53.098Z,96.80
2022-10-22T20:10:54.806Z,96.76
2022-10-22T20:15:56.867Z,96.89
2022-10-22T20:20:58.665Z,97.14
2022-10-22T20:26:01.055Z,97.31
2022-10-22T20:31:21.011Z,97.27
2022-10-22T20:36:24.125Z,97.27
2022-10-22T20:41:31.806Z,97.51
2022-10-22T20:46:34.288Z,97.89
2022-10-22T20:51:40.009Z,97.76
2022-10-22T20:56:42.546Z,97.96
2022-10-22T21:01:47.662Z,98.22
2022-10-22T21:06:50.364Z,98.28
2022-10-22T21:11:55.808Z,98.30
2022-10-22T21:16:59.738Z,98.78
2022-10-22T21:22:01.777Z,98.50
2022-10-22T21:27:03.955Z,98.71
2022-10-22T21:32:05.424Z,98.69
2022-10-22T21:37:06.897Z,98.83
2022-10-22T21:42:08.410Z,98.96
2022-10-22T21:47:09.925Z,98.93
2022-10-22T21:52:11.450Z,98.94
2022-10-22T21:57:12.898Z,98.87
2022-10-22T22:02:14.474Z,98.92
2022-10-22T22:07:41.231Z,98.88
2022-10-22T22:12:43.535Z,98.89
2022-10-22T22:17:46.425Z,99.00
2022-10-22T22:22:48.119Z,98.87
2022-10-22T22:27:49.747Z,98.99
2022-10-22T22:32:51.300Z,98.90
2022-10-22T22:37:53.261Z,98.89
2022-10-22T22:42:54.775Z,98.84
2022-10-22T22:47:57.165Z,99.13
2022-10-22T22:52:59.063Z,98.99
2022-10-22T22:58:00.804Z,99.00
2022-10-22T23:03:02.875Z,99.05
2022-10-22T23:08:04.965Z,98.87
2022-10-22T23:13:06.604Z,99.04
2022-10-22T23:18:08.026Z,98.82
2022-10-22T23:23:10.060Z,99.04
2022-10-22T23:28:15.120Z,98.96
2022-10-22T23:33:17.199Z,99.01
2022-10-22T23:38:18.669Z,99.03
2022-10-22T23:43:20.126Z,98.93
2022-10-22T23:48:22.219Z,99.00
2022-10-22T23:53:26.412Z,99.10
2022-10-22T23:58:27.833Z,98.86
